createdAt,value
2018-07-16T00:00:26.192Z,101497.02
2018-07-16T00:02:55.248Z,101498.20
2018-07-16T00:05:24.361Z,101496.09
2018-07-16T00:07:53.298Z,101499.57
2018-07-16T00:10:22.362Z,101494.09
2018-07-16T00:12:51.316Z,101494.53
2018-07-16T00:15:20.473Z,101490.74
2018-07-16T00:17:49.466Z,101492.64
2018-07-16T00:20:18.364Z,101489.55
2018-07-16T00:22:47.310Z,101488.92
2018-07-16T00:25:16.405Z,101490.03
2018-07-16T00:27:45.509Z,101487.82
2018-07-16T00:30:14.604Z,101486.13
2018-07-16T00:32:43.533Z,101487.27
2018-07-16T00:35:12.734Z,101488.45
2018-07-16T00:37:41.676Z,101485.34
2018-07-16T00:40:10.917Z,101484.23
2018-07-16T00:42:39.852Z,101482.75
2018-07-16T00:45:08.885Z,101484.65
2018-07-16T00:47:37.836Z,101482.75
2018-07-16T00:50:06.923Z,101486.86
2018-07-16T00:52:35.944Z,101483.46
2018-07-16T00:55:05.032Z,101482.80
2018-07-16T00:57:33.965Z,101484.48
2018-07-16T01:00:02.956Z,101483.33
2018-07-16T01:02:31.948Z,101481.50
2018-07-16T01:05:01.005Z,101477.58
2018-07-16T01:07:30.049Z,101478.81
2018-07-16T01:09:59.093Z,101479.02
2018-07-16T01:12:28.112Z,101474.07
2018-07-16T01:14:57.103Z,101480.46
2018-07-16T01:17:26.081Z,101475.58
2018-07-16T01:19:55.065Z,101481.97
2018-07-16T01:22:24.011Z,101479.31
2018-07-16T01:24:53.039Z,101476.43
2018-07-16T01:27:22.031Z,101477.34
2018-07-16T01:29:50.893Z,101464.75
2018-07-16T01:32:19.940Z,101474.61
2018-07-16T01:34:49.078Z,101473.63
2018-07-16T01:37:18.120Z,101468.22
2018-07-16T01:39:47.148Z,101469.80
2018-07-16T01:42:16.107Z,101468.02
2018-07-16T01:44:45.185Z,101471.34
2018-07-16T01:47:14.213Z,101471.80
2018-07-16T01:49:43.267Z,101468.29
2018-07-16T01:52:12.252Z,101472.01
2018-07-16T01:54:41.290Z,101466.46
2018-07-16T01:57:10.294Z,101468.73
2018-07-16T01:59:39.368Z,101460.59
2018-07-16T02:02:08.327Z,101460.77
2018-07-16T02:04:37.296Z,101453.41
2018-07-16T02:07:06.376Z,101454.28
2018-07-16T02:09:35.407Z,101459.30
2018-07-16T02:12:04.340Z,101453.60
2018-07-16T02:14:33.273Z,101464.28
2018-07-16T02:17:02.227Z,101456.61
2018-07-16T02:19:31.208Z,101460.36
2018-07-16T02:22:00.178Z,101457.45
2018-07-16T02:24:29.163Z,101458.61
2018-07-16T02:26:58.105Z,101454.66
2018-07-16T02:29:27.127Z,101458.17
2018-07-16T02:31:56.042Z,101453.02
2018-07-16T02:34:25.054Z,101459.73
2018-07-16T02:36:54.081Z,101459.84
2018-07-16T02:39:23.065Z,101464.84
2018-07-16T02:41:52.027Z,101461.06
2018-07-16T02:44:21.063Z,101456.30
2018-07-16T02:46:50.105Z,101456.65
2018-07-16T02:49:19.128Z,101444.44
2018-07-16T02:51:48.223Z,101455.31
2018-07-16T02:54:17.292Z,101458.73
2018-07-16T02:56:46.408Z,101453.86
2018-07-16T02:59:15.255Z,101450.08
2018-07-16T03:01:44.311Z,101443.39
2018-07-16T03:04:13.334Z,101444.55
2018-07-16T03:06:42.416Z,101445.60
2018-07-16T03:09:11.423Z,101450.98
2018-07-16T03:11:40.581Z,101452.08
2018-07-16T03:14:09.617Z,101450.41
2018-07-16T03:16:38.692Z,101450.73
2018-07-16T03:19:07.861Z,101449.38
2018-07-16T03:21:36.915Z,101452.98
2018-07-16T03:24:05.951Z,101452.56
2018-07-16T03:26:35.032Z,101451.42
2018-07-16T03:29:04.036Z,101447.13
2018-07-16T03:31:33.030Z,101449.59
2018-07-16T03:34:02.054Z,101451.63
2018-07-16T03:36:31.148Z,101453.05
2018-07-16T03:39:00.088Z,101449.89
2018-07-16T03:41:29.124Z,101453.77
2018-07-16T03:43:58.129Z,101449.46
2018-07-16T03:46:27.080Z,101449.41
2018-07-16T03:48:55.995Z,101448.13
2018-07-16T03:51:25.151Z,101457.46
2018-07-16T03:53:54.163Z,101449.59
2018-07-16T03:56:23.185Z,101452.58
2018-07-16T03:58:52.251Z,101445.30
2018-07-16T04:01:21.424Z,101447.94
2018-07-16T04:03:50.386Z,101446.52
2018-07-16T04:06:19.403Z,101445.61
2018-07-16T04:08:48.425Z,101451.54
2018-07-16T04:11:17.541Z,101453.16
2018-07-16T04:13:46.498Z,101456.29
2018-07-16T04:16:15.556Z,101455.84
2018-07-16T04:18:44.608Z,101454.75
2018-07-16T04:21:13.680Z,101457.34
2018-07-16T04:23:42.677Z,101447.84
2018-07-16T04:26:11.763Z,101442.86
2018-07-16T04:28:40.797Z,101447.30
2018-07-16T04:31:09.824Z,101447.67
2018-07-16T04:33:38.856Z,101443.76
2018-07-16T04:36:07.935Z,101450.66
2018-07-16T04:38:36.924Z,101448.61
2018-07-16T04:41:05.945Z,101452.16
2018-07-16T04:43:35.088Z,101445.62
2018-07-16T04:46:04.120Z,101452.74
2018-07-16T04:48:33.119Z,101445.09
2018-07-16T04:51:02.233Z,101449.28
2018-07-16T04:53:31.206Z,101446.27
2018-07-16T04:56:00.022Z,101451.51
2018-07-16T04:58:28.833Z,101448.36
2018-07-16T05:00:57.739Z,101443.33
2018-07-16T05:03:26.553Z,101442.31
2018-07-16T05:05:55.400Z,101447.95
2018-07-16T05:08:24.279Z,101447.56
2018-07-16T05:10:53.332Z,101443.02
2018-07-16T05:13:22.237Z,101445.89
2018-07-16T05:15:51.155Z,101446.61
2018-07-16T05:18:20.238Z,101442.56
2018-07-16T05:20:49.050Z,101443.03
2018-07-16T05:23:18.239Z,101445.97
2018-07-16T05:25:47.138Z,101435.34
2018-07-16T05:28:15.980Z,101435.17
2018-07-16T05:30:44.778Z,101427.50
2018-07-16T05:33:13.670Z,101421.77
2018-07-16T05:35:42.487Z,101419.30
2018-07-16T05:38:11.382Z,101411.91
2018-07-16T05:40:40.245Z,101406.98
2018-07-16T05:43:09.089Z,101400.31
2018-07-16T05:45:37.956Z,101398.94
2018-07-16T05:48:06.931Z,101393.94
2018-07-16T05:50:35.819Z,101393.16
2018-07-16T05:53:04.689Z,101394.09
2018-07-16T05:55:33.488Z,101392.40
2018-07-16T05:58:02.383Z,101390.58
2018-07-16T06:00:31.275Z,101385.32
2018-07-16T06:03:00.264Z,101386.92
2018-07-16T06:05:29.213Z,101386.50
2018-07-16T06:07:58.221Z,101385.45
2018-07-16T06:10:27.824Z,101381.59
2018-07-16T06:12:56.827Z,101384.41
2018-07-16T06:15:25.907Z,101379.64
2018-07-16T06:17:54.968Z,101388.41
2018-07-16T06:20:23.808Z,101389.19
2018-07-16T06:22:52.812Z,101380.20
2018-07-16T06:25:21.825Z,101391.80
2018-07-16T06:27:50.740Z,101390.45
2018-07-16T06:30:19.806Z,101392.11
2018-07-16T06:32:48.824Z,101395.33
2018-07-16T06:35:17.860Z,101396.50
2018-07-16T06:37:47.013Z,101396.03
2018-07-16T06:40:16.114Z,101397.03
2018-07-16T06:42:45.064Z,101395.70
2018-07-16T06:45:14.019Z,101387.48
2018-07-16T06:47:42.974Z,101388.12
2018-07-16T06:52:39.754Z,101383.80
2018-07-16T06:55:08.833Z,101386.43
2018-07-16T06:57:37.818Z,101384.33
2018-07-16T07:00:06.984Z,101377.22
2018-07-16T07:02:35.971Z,101381.11
2018-07-16T07:05:04.974Z,101376.42
2018-07-16T07:07:33.913Z,101378.72
2018-07-16T07:10:02.981Z,101378.30
2018-07-16T07:12:31.962Z,101375.16
2018-07-16T07:15:00.933Z,101375.83
2018-07-16T07:17:29.833Z,101374.86
2018-07-16T07:19:58.773Z,101372.73
2018-07-16T07:22:27.736Z,101369.22
2018-07-16T07:24:56.624Z,101368.77
2018-07-16T07:27:25.508Z,101359.91
2018-07-16T07:29:55.436Z,101359.70
2018-07-16T07:32:24.435Z,101359.44
2018-07-16T07:34:53.407Z,101358.06
2018-07-16T07:37:22.409Z,101348.89
2018-07-16T07:39:51.355Z,101349.53
2018-07-16T07:42:20.296Z,101352.32
2018-07-16T07:44:49.300Z,101346.22
2018-07-16T07:47:18.517Z,101340.92
2018-07-16T07:49:47.494Z,101338.70
2018-07-16T07:52:16.538Z,101340.92
2018-07-16T07:54:45.619Z,101330.60
2018-07-16T07:57:14.611Z,101335.06
2018-07-16T07:59:43.732Z,101336.39
2018-07-16T08:02:12.701Z,101339.72
2018-07-16T08:04:41.840Z,101335.50
2018-07-16T08:07:12.297Z,101337.20
2018-07-16T08:09:43.112Z,101340.29
2018-07-16T08:12:13.230Z,101336.93
2018-07-16T08:14:43.647Z,101336.57
2018-07-16T08:17:13.135Z,101337.09
2018-07-16T08:19:42.280Z,101338.71
2018-07-16T08:22:11.332Z,101333.98
2018-07-16T08:24:40.400Z,101333.95
2018-07-16T08:27:09.464Z,101334.25
2018-07-16T08:29:38.584Z,101333.64
2018-07-16T08:32:08.461Z,101333.84
2018-07-16T08:34:37.620Z,101326.03
2018-07-16T08:37:06.785Z,101330.48
2018-07-16T08:39:35.938Z,101328.20
2018-07-16T08:42:05.037Z,101328.66
2018-07-16T08:44:34.129Z,101325.70
2018-07-16T08:47:03.177Z,101331.97
2018-07-16T08:49:32.184Z,101332.14
2018-07-16T08:52:01.397Z,101332.63
2018-07-16T08:54:30.457Z,101330.95
2018-07-16T08:56:59.507Z,101329.02
2018-07-16T08:59:28.584Z,101331.41
2018-07-16T09:01:57.689Z,101327.58
2018-07-16T09:04:26.740Z,101329.63
2018-07-16T09:06:55.854Z,101325.77
2018-07-16T09:09:25.005Z,101327.77
2018-07-16T09:11:54.100Z,101325.66
2018-07-16T09:14:23.297Z,101329.38
2018-07-16T09:16:52.395Z,101326.92
2018-07-16T09:19:21.469Z,101319.92
2018-07-16T09:21:50.477Z,101319.53
2018-07-16T09:24:19.560Z,101322.44
2018-07-16T09:26:48.616Z,101324.19
2018-07-16T09:29:17.698Z,101325.12
2018-07-16T09:31:46.800Z,101327.04
2018-07-16T09:34:16.044Z,101330.09
2018-07-16T09:36:44.971Z,101321.33
2018-07-16T09:39:13.997Z,101316.94
2018-07-16T09:41:42.970Z,101319.05
2018-07-16T09:44:11.957Z,101311.66
2018-07-16T09:46:40.920Z,101310.03
2018-07-16T09:49:09.971Z,101305.47
2018-07-16T09:51:39.062Z,101295.55
2018-07-16T09:54:08.454Z,101301.25
2018-07-16T09:56:37.731Z,101297.52
2018-07-16T09:59:07.067Z,101292.79
2018-07-16T10:01:41.314Z,101290.23
2018-07-16T10:04:10.622Z,101287.54
2018-07-16T10:06:40.054Z,101286.13
2018-07-16T10:09:10.165Z,101280.09
2018-07-16T10:11:39.546Z,101278.25
2018-07-16T10:14:08.542Z,101279.20
2018-07-16T10:16:37.529Z,101276.11
2018-07-16T10:19:06.667Z,101276.56
2018-07-16T10:21:35.626Z,101273.71
2018-07-16T10:24:04.612Z,101279.77
2018-07-16T10:26:33.593Z,101274.41
2018-07-16T10:29:02.607Z,101270.63
2018-07-16T10:31:31.716Z,101271.80
2018-07-16T10:34:00.734Z,101265.08
2018-07-16T10:36:29.776Z,101256.55
2018-07-16T10:38:58.674Z,101258.99
2018-07-16T10:41:27.749Z,101253.02
2018-07-16T10:43:56.712Z,101267.48
2018-07-16T10:46:25.806Z,101260.61
2018-07-16T10:48:54.665Z,101259.30
2018-07-16T10:51:23.625Z,101262.55
2018-07-16T10:53:52.614Z,101262.62
2018-07-16T10:56:21.829Z,101258.69
2018-07-16T10:58:50.753Z,101253.52
2018-07-16T11:01:19.677Z,101256.84
2018-07-16T11:03:48.537Z,101252.91
2018-07-16T11:06:22.979Z,101244.80
2018-07-16T11:08:53.361Z,101245.56
2018-07-16T11:11:22.532Z,101244.56
2018-07-16T11:13:51.517Z,101245.06
2018-07-16T11:16:20.581Z,101241.00
2018-07-16T11:18:49.617Z,101240.55
2018-07-16T11:21:18.654Z,101237.78
2018-07-16T11:23:47.685Z,101229.81
2018-07-16T11:26:16.772Z,101226.80
2018-07-16T11:28:45.805Z,101229.14
2018-07-16T11:31:14.845Z,101227.45
2018-07-16T11:33:43.836Z,101224.48
2018-07-16T11:36:12.849Z,101215.06
2018-07-16T11:38:41.845Z,101213.16
2018-07-16T11:41:10.857Z,101220.25
2018-07-16T11:43:39.865Z,101213.13
2018-07-16T11:46:09.009Z,101216.05
2018-07-16T11:48:37.952Z,101222.83
2018-07-16T11:51:06.986Z,101215.33
2018-07-16T11:53:36.004Z,101219.00
2018-07-16T11:56:04.964Z,101214.02
2018-07-16T11:58:34.038Z,101216.39
2018-07-16T12:01:04.081Z,101206.89
2018-07-16T12:03:33.117Z,101203.53
2018-07-16T12:06:06.290Z,101202.81
2018-07-16T12:08:35.309Z,101199.73
2018-07-16T12:11:04.368Z,101201.70
2018-07-16T12:13:33.245Z,101195.33
2018-07-16T12:16:02.123Z,101188.10
2018-07-16T12:18:30.960Z,101191.88
2018-07-16T12:20:59.887Z,101183.45
2018-07-16T12:23:28.700Z,101181.06
2018-07-16T12:25:57.726Z,101187.86
2018-07-16T12:28:26.636Z,101181.95
2018-07-16T12:30:55.506Z,101178.33
2018-07-16T12:33:24.366Z,101179.87
2018-07-16T12:35:53.381Z,101181.11
2018-07-16T12:38:22.431Z,101177.56
2018-07-16T12:40:51.449Z,101175.55
2018-07-16T12:43:20.440Z,101180.03
2018-07-16T12:45:49.476Z,101175.70
2018-07-16T12:48:18.505Z,101171.72
2018-07-16T12:50:47.544Z,101169.48
2018-07-16T12:53:16.525Z,101169.23
2018-07-16T12:55:45.452Z,101166.53
2018-07-16T12:58:14.600Z,101161.31
2018-07-16T13:00:43.548Z,101150.89
2018-07-16T13:03:12.502Z,101148.70
2018-07-16T13:05:41.362Z,101150.97
2018-07-16T13:08:10.417Z,101147.95
2018-07-16T13:10:39.439Z,101143.08
2018-07-16T13:13:08.408Z,101139.30
2018-07-16T13:15:37.320Z,101143.52
2018-07-16T13:18:06.517Z,101138.22
2018-07-16T13:20:35.454Z,101131.34
2018-07-16T13:23:04.390Z,101129.98
2018-07-16T13:25:33.295Z,101122.56
2018-07-16T13:28:02.580Z,101120.58
2018-07-16T13:30:31.471Z,101114.49
2018-07-16T13:33:00.448Z,101110.76
2018-07-16T13:35:29.365Z,101112.53
2018-07-16T13:37:58.278Z,101105.37
2018-07-16T13:40:27.161Z,101107.13
2018-07-16T13:42:56.100Z,101099.95
2018-07-16T13:45:24.942Z,101099.48
2018-07-16T13:47:53.997Z,101097.56
2018-07-16T13:50:22.993Z,101094.09
2018-07-16T13:52:52.090Z,101091.84
2018-07-16T13:55:21.104Z,101094.92
2018-07-16T13:57:50.201Z,101098.06
2018-07-16T14:00:19.199Z,101093.77
2018-07-16T14:02:48.225Z,101089.39
2018-07-16T14:05:17.225Z,101091.32
2018-07-16T14:07:46.436Z,101089.11
2018-07-16T14:10:15.494Z,101091.52
2018-07-16T14:12:44.513Z,101091.93
2018-07-16T14:15:13.406Z,101089.46
2018-07-16T14:17:42.674Z,101088.70
2018-07-16T14:20:11.667Z,101085.19
2018-07-16T14:22:40.588Z,101077.81
2018-07-16T14:25:09.508Z,101074.35
2018-07-16T14:27:38.532Z,101072.25
2018-07-16T14:30:07.613Z,101068.44
2018-07-16T14:32:36.777Z,101075.08
2018-07-16T14:35:06.013Z,101062.86
2018-07-16T14:37:35.221Z,101064.86
2018-07-16T14:40:04.383Z,101056.75
2018-07-16T14:42:33.828Z,101055.93
2018-07-16T14:45:02.836Z,101049.73
2018-07-16T14:47:31.837Z,101054.42
2018-07-16T14:50:00.751Z,101059.66
2018-07-16T14:52:29.764Z,101059.11
2018-07-16T14:54:58.542Z,101056.88
2018-07-16T14:57:27.575Z,101056.93
2018-07-16T14:59:56.546Z,101054.62
2018-07-16T15:02:25.666Z,101061.47
2018-07-16T15:04:54.657Z,101057.50
2018-07-16T15:07:23.656Z,101054.66
2018-07-16T15:09:52.684Z,101054.98
2018-07-16T15:12:21.789Z,101058.05
2018-07-16T15:14:50.852Z,101059.23
2018-07-16T15:17:19.832Z,101058.78
2018-07-16T15:19:48.621Z,101058.59
2018-07-16T15:22:17.648Z,101052.06
2018-07-16T15:24:46.601Z,101055.91
2018-07-16T15:27:15.579Z,101046.80
2018-07-16T15:29:44.773Z,101056.00
2018-07-16T15:32:13.618Z,101057.70
2018-07-16T15:34:42.583Z,101056.89
2018-07-16T15:37:11.602Z,101054.65
2018-07-16T15:39:40.511Z,101051.78
2018-07-16T15:42:09.650Z,101047.56
2018-07-16T15:44:38.662Z,101047.63
2018-07-16T15:47:07.726Z,101052.36
2018-07-16T15:49:36.614Z,101048.05
2018-07-16T15:52:05.556Z,101046.73
2018-07-16T15:54:34.477Z,101044.66
2018-07-16T15:57:03.457Z,101043.83
2018-07-16T15:59:32.415Z,101046.16
2018-07-16T16:02:01.336Z,101041.11
2018-07-16T16:04:30.229Z,101045.88
2018-07-16T16:06:59.213Z,101042.81
2018-07-16T16:09:28.371Z,101039.88
2018-07-16T16:11:57.279Z,101035.66
2018-07-16T16:14:26.201Z,101032.41
2018-07-16T16:16:55.187Z,101040.16
2018-07-16T16:19:24.187Z,101032.41
2018-07-16T16:21:53.173Z,101037.34
2018-07-16T16:24:22.237Z,101039.48
2018-07-16T16:26:51.216Z,101037.97
2018-07-16T16:29:20.275Z,101040.84
2018-07-16T16:31:49.276Z,101044.61
2018-07-16T16:34:18.317Z,101033.47
2018-07-16T16:36:47.304Z,101037.57
2018-07-16T16:39:16.384Z,101035.74
2018-07-16T16:41:45.424Z,101032.34
2018-07-16T16:44:14.465Z,101028.72
2018-07-16T16:46:43.485Z,101030.02
2018-07-16T16:49:12.512Z,101030.75
2018-07-16T16:51:41.521Z,101026.44
2018-07-16T16:54:10.569Z,101027.47
2018-07-16T16:56:39.631Z,101029.25
2018-07-16T16:59:08.715Z,101030.42
2018-07-16T17:01:37.866Z,101021.30
2018-07-16T17:04:06.920Z,101023.91
2018-07-16T17:06:35.896Z,101021.73
2018-07-16T17:09:05.781Z,101017.95
2018-07-16T17:11:34.734Z,101023.78
2018-07-16T17:14:03.828Z,101025.94
2018-07-16T17:16:32.647Z,101019.99
2018-07-16T17:19:01.564Z,101027.63
2018-07-16T17:21:30.624Z,101018.80
2018-07-16T17:23:59.772Z,101017.12
2018-07-16T17:26:28.753Z,101025.73
2018-07-16T17:28:57.958Z,101016.15
2018-07-16T17:31:26.954Z,101016.80
2018-07-16T17:33:55.969Z,101016.27
2018-07-16T17:36:24.925Z,101019.42
2018-07-16T17:38:53.855Z,101020.41
2018-07-16T17:41:22.844Z,101018.89
2018-07-16T17:43:51.886Z,101018.50
2018-07-16T17:46:20.870Z,101014.05
2018-07-16T17:48:49.891Z,101020.93
2018-07-16T17:51:19.213Z,101016.61
2018-07-16T17:53:48.251Z,101008.08
2018-07-16T17:56:17.184Z,101015.68
2018-07-16T17:58:46.086Z,101005.77
2018-07-16T18:01:15.180Z,101010.61
2018-07-16T18:03:44.265Z,101010.78
2018-07-16T18:06:13.367Z,101019.51
2018-07-16T18:08:42.420Z,101021.17
2018-07-16T18:11:11.460Z,101018.94
2018-07-16T18:13:40.460Z,101025.55
2018-07-16T18:16:09.496Z,101024.70
2018-07-16T18:18:38.496Z,101028.52
2018-07-16T18:21:08.022Z,101030.77
2018-07-16T18:23:37.036Z,101032.66
2018-07-16T18:26:06.060Z,101030.41
2018-07-16T18:28:35.114Z,101032.93
2018-07-16T18:31:04.136Z,101030.19
2018-07-16T18:33:33.196Z,101040.48
2018-07-16T18:36:02.054Z,101039.16
2018-07-16T18:38:31.121Z,101042.04
2018-07-16T18:41:00.001Z,101045.37
2018-07-16T18:43:29.005Z,101048.94
2018-07-16T18:45:58.012Z,101048.42
2018-07-16T18:48:27.049Z,101041.37
2018-07-16T18:50:56.009Z,101047.77
2018-07-16T18:53:24.945Z,101047.57
2018-07-16T18:55:54.009Z,101052.67
2018-07-16T18:58:23.005Z,101055.89
2018-07-16T19:00:52.013Z,101059.90
2018-07-16T19:03:21.015Z,101065.98
2018-07-16T19:05:50.049Z,101069.59
2018-07-16T19:08:19.233Z,101061.42
2018-07-16T19:10:48.322Z,101060.63
2018-07-16T19:13:17.321Z,101064.77
2018-07-16T19:15:46.404Z,101067.11
2018-07-16T19:18:15.401Z,101074.39
2018-07-16T19:20:44.397Z,101076.97
2018-07-16T19:23:13.429Z,101078.44
2018-07-16T19:25:42.497Z,101086.85
2018-07-16T19:28:11.525Z,101083.66
2018-07-16T19:30:40.608Z,101085.93
2018-07-16T19:33:09.677Z,101089.15
2018-07-16T19:35:38.807Z,101088.76
2018-07-16T19:38:07.745Z,101102.00
2018-07-16T19:40:36.832Z,101095.52
2018-07-16T19:43:05.759Z,101094.06
2018-07-16T19:45:34.904Z,101096.82
2018-07-16T19:48:03.800Z,101094.86
2018-07-16T19:50:32.817Z,101100.11
2018-07-16T19:53:01.741Z,101103.11
2018-07-16T19:55:30.797Z,101103.09
2018-07-16T19:57:59.695Z,101102.20
2018-07-16T20:00:28.679Z,101109.34
2018-07-16T20:02:57.688Z,101110.88
2018-07-16T20:05:26.525Z,101103.02
2018-07-16T20:07:55.381Z,101112.33
2018-07-16T20:10:24.417Z,101107.98
2018-07-16T20:12:53.701Z,101109.85
2018-07-16T20:15:22.572Z,101102.01
2018-07-16T20:17:51.688Z,101106.09
2018-07-16T20:20:20.623Z,101105.25
2018-07-16T20:22:49.514Z,101109.38
2018-07-16T20:25:18.418Z,101105.73
2018-07-16T20:27:47.353Z,101111.55
2018-07-16T20:30:16.567Z,101107.31
2018-07-16T20:32:45.571Z,101106.08
2018-07-16T20:35:15.379Z,101105.13
2018-07-16T20:37:44.351Z,101103.88
2018-07-16T20:40:13.391Z,101110.39
2018-07-16T20:42:42.526Z,101106.64
2018-07-16T20:45:11.480Z,101107.58
2018-07-16T20:47:40.544Z,101112.41
2018-07-16T20:50:09.840Z,101112.35
2018-07-16T20:52:38.720Z,101116.19
2018-07-16T20:55:07.745Z,101116.45
2018-07-16T20:57:36.642Z,101118.30
2018-07-16T21:00:06.037Z,101117.39
2018-07-16T21:02:35.166Z,101124.72
2018-07-16T21:05:04.104Z,101127.88
2018-07-16T21:07:32.932Z,101123.27
2018-07-16T21:10:01.840Z,101122.57
2018-07-16T21:12:30.929Z,101120.61
2018-07-16T21:14:59.851Z,101116.53
2018-07-16T21:17:28.713Z,101117.78
2018-07-16T21:19:57.583Z,101120.63
2018-07-16T21:22:26.540Z,101117.58
2018-07-16T21:24:55.471Z,101129.20
2018-07-16T21:27:24.744Z,101120.02
2018-07-16T21:29:53.990Z,101118.42
2018-07-16T21:32:22.974Z,101127.48
2018-07-16T21:34:52.012Z,101122.02
2018-07-16T21:37:21.045Z,101123.30
2018-07-16T21:39:50.041Z,101125.27
2018-07-16T21:42:19.021Z,101127.00
2018-07-16T21:44:47.995Z,101118.59
2018-07-16T21:47:16.984Z,101117.08
2018-07-16T21:49:45.911Z,101117.14
2018-07-16T21:52:14.776Z,101120.48
2018-07-16T21:54:43.780Z,101125.71
2018-07-16T21:57:12.812Z,101128.16
2018-07-16T21:59:41.817Z,101123.53
2018-07-16T22:02:10.801Z,101126.92
2018-07-16T22:04:39.847Z,101125.78
2018-07-16T22:07:08.880Z,101127.90
2018-07-16T22:09:37.814Z,101128.20
2018-07-16T22:12:06.830Z,101139.74
2018-07-16T22:14:35.888Z,101139.38
2018-07-16T22:17:04.860Z,101136.00
2018-07-16T22:19:33.812Z,101135.45
2018-07-16T22:22:02.840Z,101130.78
2018-07-16T22:24:31.892Z,101130.78
2018-07-16T22:27:00.998Z,101135.75
2018-07-16T22:29:29.925Z,101141.27
2018-07-16T22:31:58.935Z,101138.69
2018-07-16T22:34:27.952Z,101141.69
2018-07-16T22:36:56.865Z,101144.25
2018-07-16T22:39:25.899Z,101139.97
2018-07-16T22:41:54.868Z,101138.30
2018-07-16T22:44:23.936Z,101136.64
2018-07-16T22:46:52.775Z,101141.79
2018-07-16T22:49:21.768Z,101131.05
2018-07-16T22:51:50.753Z,101133.52
2018-07-16T22:54:19.703Z,101135.16
2018-07-16T22:56:48.581Z,101137.05
2018-07-16T22:59:17.500Z,101144.19
2018-07-16T23:01:46.592Z,101146.81
2018-07-16T23:04:15.792Z,101146.81
2018-07-16T23:06:44.736Z,101137.18
2018-07-16T23:09:13.731Z,101134.63
2018-07-16T23:11:42.641Z,101135.55
2018-07-16T23:14:11.607Z,101133.50
2018-07-16T23:16:40.395Z,101135.21
2018-07-16T23:19:09.239Z,101139.77
2018-07-16T23:21:38.250Z,101143.59
2018-07-16T23:24:07.084Z,101141.40
2018-07-16T23:26:35.853Z,101141.61
2018-07-16T23:29:04.714Z,101142.91
2018-07-16T23:31:33.665Z,101146.36
2018-07-16T23:34:02.617Z,101139.80
2018-07-16T23:36:31.564Z,101138.72
2018-07-16T23:39:00.541Z,101137.93
2018-07-16T23:41:29.508Z,101139.22
2018-07-16T23:43:58.690Z,101138.63
2018-07-16T23:46:27.655Z,101129.38
2018-07-16T23:48:56.603Z,101134.30
2018-07-16T23:51:25.599Z,101141.38
2018-07-16T23:53:54.836Z,101135.34
2018-07-16T23:56:23.763Z,101136.64
2018-07-16T23:58:52.973Z,101138.09
